Time;durP1;ratioP1;P1;durP2;ratioP2;P2;SDS_P1;SDS_P2;PMS_P1;PMS_P2;Temp;Humidity;BMP_temperature;BMP_pressure;BME280_temperature;BME280_humidity;BME280_pressure;Samples;Min_cycle;Max_cycle;Signal;HPM_P1;HPM_P2
2022/05/01 00:00:36;;;;;;;15.93;9.43;;;9.20;99.90;;;;;;5110635;28;20452;-66
2022/05/01 00:03:02;;;;;;;16.40;10.27;;;9.20;99.90;;;;;;5092820;28;20479;-66
2022/05/01 00:05:28;;;;;;;16.33;9.23;;;9.20;99.90;;;;;;5110714;28;20495;-66
2022/05/01 00:07:53;;;;;;;15.38;9.35;;;9.20;99.90;;;;;;5110580;28;20182;-66
2022/05/01 00:10:19;;;;;;;13.00;9.38;;;9.10;99.90;;;;;;5109640;28;20497;-66
2022/05/01 00:12:45;;;;;;;17.40;9.95;;;9.10;99.90;;;;;;5111189;28;20036;-66
2022/05/01 00:15:10;;;;;;;16.50;10.40;;;9.10;99.90;;;;;;5110995;28;20110;-66
2022/05/01 00:17:36;;;;;;;22.73;9.18;;;9.00;99.90;;;;;;5110619;28;20675;-65
2022/05/01 00:20:02;;;;;;;13.77;9.27;;;9.10;99.90;;;;;;5109640;28;20040;-66
2022/05/01 00:22:27;;;;;;;16.65;9.20;;;9.00;99.90;;;;;;5110793;28;20043;-66
2022/05/01 00:24:53;;;;;;;14.68;9.75;;;9.00;99.90;;;;;;5110724;28;20036;-67
2022/05/01 00:27:18;;;;;;;16.77;9.60;;;9.00;99.90;;;;;;5110846;28;20048;-66
2022/05/01 00:29:44;;;;;;;18.35;10.82;;;9.00;99.90;;;;;;5110812;28;20074;-66
2022/05/01 00:32:10;;;;;;;20.20;9.57;;;9.00;99.90;;;;;;5092938;28;20093;-66
2022/05/01 00:37:19;;;;;;;13.50;9.60;;;9.00;99.90;;;;;;5114459;28;20043;-65
2022/05/01 00:39:45;;;;;;;13.05;8.90;;;9.00;99.90;;;;;;5114302;28;20048;-67
2022/05/01 00:42:11;;;;;;;14.65;8.77;;;9.00;99.90;;;;;;5114797;28;20044;-67
2022/05/01 00:44:36;;;;;;;14.75;9.75;;;8.90;99.90;;;;;;5114456;28;20032;-65
2022/05/01 00:47:02;;;;;;;20.08;11.65;;;8.90;99.90;;;;;;5114354;28;20039;-66
2022/05/01 00:49:28;;;;;;;15.38;10.18;;;8.90;99.90;;;;;;5113840;28;20480;-66
2022/05/01 00:52:00;;;;;;;14.60;9.98;;;9.00;99.90;;;;;;5114376;28;20071;-66
2022/05/01 00:54:28;;;;;;;12.50;9.10;;;9.00;99.90;;;;;;5114197;28;20051;-66
2022/05/01 00:56:57;;;;;;;13.98;9.75;;;8.90;99.90;;;;;;5112441;28;20035;-66
2022/05/01 00:59:23;;;;;;;19.33;10.43;;;8.90;99.90;;;;;;5113140;28;20043;-66
2022/05/01 01:01:50;;;;;;;18.42;10.52;;;8.90;99.90;;;;;;5113961;28;20036;-66
2022/05/01 01:04:16;;;;;;;15.30;10.13;;;8.80;99.90;;;;;;5112220;28;20031;-67
2022/05/01 01:06:43;;;;;;;14.23;9.50;;;8.80;99.90;;;;;;5114210;28;20431;-67
2022/05/01 01:09:09;;;;;;;17.42;11.15;;;8.80;99.90;;;;;;5113817;28;20095;-66
2022/05/01 01:11:36;;;;;;;18.70;10.95;;;8.80;99.90;;;;;;5114118;28;20196;-66
2022/05/01 01:14:05;;;;;;;16.33;11.07;;;8.80;99.90;;;;;;5114103;28;20085;-66
2022/05/01 01:16:34;;;;;;;15.35;10.07;;;8.80;99.90;;;;;;5113934;28;20040;-67
2022/05/01 01:19:01;;;;;;;18.55;10.38;;;8.80;99.90;;;;;;5113441;28;20438;-67
2022/05/01 01:21:27;;;;;;;14.52;10.10;;;8.80;99.90;;;;;;5113709;28;20114;-66
2022/05/01 01:23:53;;;;;;;17.65;11.60;;;8.80;99.90;;;;;;5113700;28;20047;-66
2022/05/01 01:26:20;;;;;;;16.63;10.55;;;8.90;99.90;;;;;;5112667;28;20040;-66
2022/05/01 01:28:47;;;;;;;17.40;10.57;;;8.80;99.90;;;;;;5113111;28;20146;-66
2022/05/01 01:34:00;;;;;;;22.63;11.48;;;8.80;99.90;;;;;;5113751;28;20412;-66
2022/05/01 01:36:32;;;;;;;14.65;10.55;;;8.80;99.90;;;;;;5113592;28;20454;-65
2022/05/01 01:38:57;;;;;;;16.77;10.88;;;8.80;99.90;;;;;;5113843;28;20073;-66
2022/05/01 01:41:30;;;;;;;19.13;11.38;;;8.80;99.90;;;;;;5114101;28;20531;-66
2022/05/01 01:43:57;;;;;;;17.35;10.52;;;8.80;99.90;;;;;;5113793;28;20039;-66
2022/05/01 01:46:23;;;;;;;15.45;11.05;;;8.80;99.90;;;;;;5113961;28;20039;-65
2022/05/01 01:48:49;;;;;;;16.80;11.10;;;8.80;99.90;;;;;;5113085;28;20089;-65
2022/05/01 01:51:14;;;;;;;16.52;11.80;;;8.70;99.90;;;;;;5095098;28;20043;-65
2022/05/01 01:53:41;;;;;;;17.10;10.95;;;8.80;99.90;;;;;;5113221;28;20487;-65
2022/05/01 01:56:10;;;;;;;15.25;11.20;;;8.90;99.90;;;;;;5113192;28;20484;-65
2022/05/01 01:58:39;;;;;;;22.65;11.73;;;9.00;99.90;;;;;;5112498;28;20383;-65
2022/05/01 02:01:06;;;;;;;19.38;12.15;;;8.90;99.90;;;;;;5113033;28;20512;-68
2022/05/01 02:03:33;;;;;;;22.75;12.25;;;8.80;99.90;;;;;;5113255;28;20085;-66
2022/05/01 02:05:59;;;;;;;16.45;11.23;;;8.70;99.90;;;;;;5112983;28;20080;-66
2022/05/01 02:08:25;;;;;;;16.38;11.38;;;8.70;99.90;;;;;;5112757;28;20050;-67
2022/05/01 02:10:52;;;;;;;18.15;10.90;;;8.70;99.90;;;;;;5077603;28;20047;-66
2022/05/01 02:13:18;;;;;;;17.42;11.30;;;8.70;99.90;;;;;;5113056;28;20065;-67
2022/05/01 02:15:44;;;;;;;18.20;11.20;;;8.80;99.90;;;;;;5113011;28;20039;-68
2022/05/01 02:18:09;;;;;;;18.58;10.65;;;8.70;99.90;;;;;;5112831;28;20122;-67
2022/05/01 02:23:20;;;;;;;20.13;11.50;;;8.60;99.90;;;;;;5112671;28;20040;-66
2022/05/01 02:25:47;;;;;;;21.40;12.27;;;8.60;99.90;;;;;;5112676;28;20452;-66
2022/05/01 02:28:14;;;;;;;17.08;11.02;;;8.60;99.90;;;;;;5112500;28;20050;-66
2022/05/01 02:30:40;;;;;;;15.18;10.90;;;8.70;99.90;;;;;;5094230;28;20047;-66
2022/05/01 02:33:07;;;;;;;22.40;11.98;;;8.60;99.90;;;;;;5112456;28;20032;-68
2022/05/01 02:35:36;;;;;;;21.17;12.02;;;8.60;99.90;;;;;;5112397;28;20047;-66
2022/05/01 02:38:02;;;;;;;22.90;12.40;;;8.60;99.90;;;;;;5112113;28;20043;-67
2022/05/01 02:40:31;;;;;;;19.60;12.05;;;8.60;99.90;;;;;;5111149;28;20039;-66
2022/05/01 02:42:58;;;;;;;18.63;11.80;;;8.70;99.90;;;;;;5112143;28;20118;-66
2022/05/01 02:45:24;;;;;;;18.38;12.02;;;8.60;99.90;;;;;;5112292;28;20396;-66
2022/05/01 02:47:50;;;;;;;16.75;11.52;;;8.60;99.90;;;;;;5111312;28;20492;-66
2022/05/01 02:50:16;;;;;;;19.02;12.93;;;8.70;99.90;;;;;;5111928;28;20119;-66
2022/05/01 02:52:41;;;;;;;18.83;11.73;;;8.70;99.90;;;;;;5111973;28;20038;-66
2022/05/01 02:55:07;;;;;;;19.67;12.32;;;8.80;99.90;;;;;;5112157;28;20120;-66
2022/05/01 02:57:33;;;;;;;27.38;12.70;;;8.80;99.90;;;;;;5111658;28;20039;-66
2022/05/01 02:59:59;;;;;;;22.40;12.70;;;8.80;99.90;;;;;;5111553;28;20047;-67
2022/05/01 03:02:24;;;;;;;17.35;12.05;;;8.80;99.90;;;;;;5112074;28;20035;-66
2022/05/01 03:04:50;;;;;;;21.77;13.30;;;8.80;99.90;;;;;;5111721;28;20035;-65
2022/05/01 03:07:15;;;;;;;20.92;12.32;;;8.80;99.90;;;;;;5111656;28;20036;-66
2022/05/01 03:09:41;;;;;;;23.17;12.65;;;8.80;99.90;;;;;;5111612;28;20042;-68
2022/05/01 03:12:08;;;;;;;24.15;13.18;;;8.70;99.90;;;;;;5111689;28;20043;-67
2022/05/01 03:14:33;;;;;;;21.23;12.25;;;8.60;99.90;;;;;;5111728;28;20084;-66
2022/05/01 03:16:58;;;;;;;19.85;11.95;;;8.50;99.90;;;;;;5111548;28;20043;-66
2022/05/01 03:22:13;;;;;;;19.20;12.52;;;8.50;99.90;;;;;;5111817;28;20044;-66
2022/05/01 03:24:39;;;;;;;19.75;12.52;;;8.60;99.90;;;;;;5112007;28;20080;-66
2022/05/01 03:27:06;;;;;;;22.67;13.52;;;8.60;99.90;;;;;;5110364;28;20039;-65
2022/05/01 03:29:32;;;;;;;19.17;12.48;;;8.60;99.90;;;;;;5111216;28;20039;-66
2022/05/01 03:31:58;;;;;;;19.80;13.45;;;8.50;99.90;;;;;;5111404;28;20096;-67
2022/05/01 03:34:26;;;;;;;19.67;12.57;;;8.60;99.90;;;;;;5111022;28;20044;-66
2022/05/01 03:36:53;;;;;;;20.40;12.70;;;8.60;99.90;;;;;;5111019;28;20039;-66
2022/05/01 03:39:20;;;;;;;18.45;11.88;;;8.50;99.90;;;;;;5110981;28;20036;-66
2022/05/01 03:41:46;;;;;;;25.40;15.18;;;8.60;99.90;;;;;;5110396;28;20427;-67
2022/05/01 03:44:11;;;;;;;20.33;12.85;;;8.60;99.90;;;;;;5111338;28;20038;-66
2022/05/01 03:46:38;;;;;;;19.92;12.90;;;8.50;99.90;;;;;;5110463;28;20036;-66
2022/05/01 03:49:09;;;;;;;20.08;13.00;;;8.60;99.90;;;;;;5110620;28;20515;-67
2022/05/01 03:51:34;;;;;;;21.27;12.63;;;8.60;99.90;;;;;;5110582;28;20040;-66
2022/05/01 03:54:02;;;;;;;20.95;12.57;;;8.50;99.90;;;;;;5111238;28;20157;-67
2022/05/01 03:56:31;;;;;;;18.83;13.30;;;8.50;99.90;;;;;;5111257;28;20051;-66
2022/05/01 03:58:57;;;;;;;21.73;13.32;;;8.50;99.90;;;;;;5110765;28;20048;-66
2022/05/01 04:01:24;;;;;;;20.35;12.38;;;8.40;99.90;;;;;;5092807;28;20168;-66
2022/05/01 04:03:51;;;;;;;18.60;12.73;;;8.50;99.90;;;;;;5110902;28;20043;-67
2022/05/01 04:06:16;;;;;;;22.42;13.23;;;8.50;99.90;;;;;;5110594;28;20441;-67
2022/05/01 04:08:42;;;;;;;22.90;12.77;;;8.40;99.90;;;;;;5111408;28;20047;-66
2022/05/01 04:11:08;;;;;;;22.17;12.60;;;8.40;99.90;;;;;;5115202;28;20059;-66
2022/05/01 04:13:35;;;;;;;18.92;12.52;;;8.40;99.90;;;;;;5096927;28;20057;-66
2022/05/01 04:16:01;;;;;;;22.48;13.63;;;8.40;99.90;;;;;;5114376;28;20039;-66
2022/05/01 04:18:26;;;;;;;18.67;12.70;;;8.40;99.90;;;;;;5112596;28;20040;-68
2022/05/01 04:20:52;;;;;;;22.55;13.05;;;8.50;99.90;;;;;;5111131;28;20120;-66
2022/05/01 04:23:18;;;;;;;19.73;12.77;;;8.50;99.90;;;;;;5111878;28;20043;-66
2022/05/01 04:25:44;;;;;;;23.10;13.43;;;8.50;99.90;;;;;;5111992;28;20064;-66
2022/05/01 04:28:11;;;;;;;20.40;13.35;;;8.60;99.90;;;;;;5111679;28;20057;-66
2022/05/01 04:30:40;;;;;;;22.95;13.85;;;8.60;99.90;;;;;;5112788;28;20047;-67
2022/05/01 04:33:13;;;;;;;23.10;13.55;;;8.60;99.90;;;;;;5114250;28;20053;-66
2022/05/01 04:35:42;;;;;;;23.52;14.55;;;8.60;99.90;;;;;;5114567;28;20043;-66
2022/05/01 04:38:10;;;;;;;22.15;15.25;;;8.50;99.90;;;;;;5113448;28;20059;-67
2022/05/01 04:40:47;;;;;;;22.75;13.00;;;8.50;99.90;;;;;;5113305;28;20024;-65
2022/05/01 04:43:18;;;;;;;20.58;13.15;;;8.50;99.90;;;;;;5095181;28;20054;-67
2022/05/01 04:45:48;;;;;;;24.77;13.35;;;8.40;99.90;;;;;;5114020;28;20111;-67
2022/05/01 04:48:15;;;;;;;21.27;13.80;;;8.30;99.90;;;;;;5113082;28;20039;-67
2022/05/01 04:50:41;;;;;;;20.83;13.32;;;8.40;99.90;;;;;;5113404;28;20043;-65
2022/05/01 04:53:11;;;;;;;20.67;14.80;;;8.30;99.90;;;;;;5113827;28;20043;-66
2022/05/01 04:55:39;;;;;;;24.42;14.27;;;8.30;99.90;;;;;;5113280;28;20048;-66
2022/05/01 04:58:05;;;;;;;22.80;14.45;;;8.30;99.90;;;;;;5113735;28;20032;-66
2022/05/01 05:00:31;;;;;;;22.63;14.93;;;8.40;99.90;;;;;;5113172;28;20441;-66
2022/05/01 05:02:57;;;;;;;25.85;15.80;;;8.40;99.90;;;;;;5113659;28;20043;-66
2022/05/01 05:05:24;;;;;;;23.88;15.23;;;8.30;99.90;;;;;;5113207;28;20036;-66
2022/05/01 05:07:49;;;;;;;25.05;15.07;;;8.30;99.90;;;;;;5095790;28;20044;-66
2022/05/01 05:10:16;;;;;;;23.90;15.25;;;8.30;99.90;;;;;;5113846;28;20093;-66
2022/05/01 05:12:43;;;;;;;21.90;16.15;;;8.30;99.90;;;;;;5114251;28;20453;-67
2022/05/01 05:15:11;;;;;;;25.73;15.73;;;8.30;99.90;;;;;;5095681;28;20039;-65
2022/05/01 05:17:38;;;;;;;23.20;14.82;;;8.30;99.90;;;;;;5095490;28;20046;-66
2022/05/01 05:20:05;;;;;;;23.48;14.90;;;8.30;99.90;;;;;;5094658;28;20130;-65
2022/05/01 05:22:30;;;;;;;25.75;14.98;;;8.30;99.90;;;;;;5113098;28;20373;-66
2022/05/01 05:24:57;;;;;;;27.13;15.75;;;8.40;99.90;;;;;;5113516;28;20057;-67
2022/05/01 05:27:25;;;;;;;23.95;15.57;;;8.40;99.90;;;;;;5113983;28;20032;-66
2022/05/01 05:29:55;;;;;;;23.42;16.20;;;8.40;99.90;;;;;;5094212;28;20059;-66
2022/05/01 05:32:22;;;;;;;28.17;16.60;;;8.40;99.90;;;;;;5113810;28;20348;-66
2022/05/01 05:34:48;;;;;;;27.13;17.10;;;8.40;99.90;;;;;;5113660;28;20039;-66
2022/05/01 05:37:15;;;;;;;27.88;16.30;;;8.40;99.90;;;;;;5112610;28;20079;-66
2022/05/01 05:39:40;;;;;;;24.17;15.25;;;8.40;99.90;;;;;;5113094;28;20115;-66
2022/05/01 05:42:06;;;;;;;24.35;16.38;;;8.40;99.90;;;;;;5113506;28;20676;-66
2022/05/01 05:44:32;;;;;;;25.45;15.90;;;8.40;99.90;;;;;;5113678;28;20116;-66
2022/05/01 05:46:57;;;;;;;29.35;17.15;;;8.40;99.90;;;;;;5113265;28;20415;-66
2022/05/01 05:49:23;;;;;;;25.67;16.70;;;8.40;99.90;;;;;;5113270;28;20055;-67
2022/05/01 05:51:48;;;;;;;25.52;14.75;;;8.40;99.90;;;;;;5113186;28;20035;-66
2022/05/01 05:54:14;;;;;;;25.85;15.63;;;8.40;99.90;;;;;;5113124;28;20040;-66
2022/05/01 05:56:40;;;;;;;23.17;15.68;;;8.40;99.90;;;;;;5113151;28;20047;-67
2022/05/01 05:59:05;;;;;;;24.23;14.68;;;8.50;99.90;;;;;;5112881;28;20115;-67
2022/05/01 06:01:31;;;;;;;25.55;15.63;;;8.50;99.90;;;;;;5113222;28;20027;-66
2022/05/01 06:03:56;;;;;;;25.95;15.50;;;8.50;99.90;;;;;;5113238;28;20656;-66
2022/05/01 06:06:22;;;;;;;26.98;16.10;;;8.50;99.90;;;;;;5112798;28;20793;-67
2022/05/01 06:08:47;;;;;;;24.25;14.60;;;8.60;99.90;;;;;;5111827;28;20514;-66
2022/05/01 06:11:13;;;;;;;25.02;15.30;;;8.50;99.90;;;;;;5111922;28;20069;-66
2022/05/01 06:13:38;;;;;;;22.02;14.50;;;8.50;99.90;;;;;;5112943;28;20057;-66
2022/05/01 06:16:04;;;;;;;26.85;15.02;;;8.60;99.90;;;;;;5112891;28;20039;-65
2022/05/01 06:18:30;;;;;;;23.02;14.57;;;8.60;99.90;;;;;;5112346;28;20048;-67
2022/05/01 06:20:57;;;;;;;27.88;15.07;;;8.60;99.90;;;;;;5112468;28;20115;-67
2022/05/01 06:23:22;;;;;;;20.20;14.00;;;8.60;99.90;;;;;;5111668;28;20092;-66
2022/05/01 06:25:49;;;;;;;25.98;14.80;;;8.70;99.90;;;;;;5094313;28;20043;-67
2022/05/01 06:28:15;;;;;;;24.92;14.43;;;8.60;99.90;;;;;;5112353;28;20046;-66
2022/05/01 06:30:46;;;;;;;24.67;13.88;;;8.60;99.90;;;;;;5112266;28;20130;-66
2022/05/01 06:33:13;;;;;;;27.58;15.00;;;8.70;99.90;;;;;;5112191;28;20118;-66
2022/05/01 06:35:39;;;;;;;21.83;14.30;;;8.70;99.90;;;;;;5112210;28;20469;-66
2022/05/01 06:38:06;;;;;;;19.58;13.48;;;8.80;99.90;;;;;;5112529;28;20032;-66
2022/05/01 06:40:32;;;;;;;23.73;13.75;;;8.80;99.90;;;;;;5112092;28;20089;-68
2022/05/01 06:42:57;;;;;;;23.38;14.73;;;8.80;99.90;;;;;;5094050;28;20063;-69
2022/05/01 06:45:23;;;;;;;23.77;13.85;;;8.90;99.90;;;;;;5094096;28;20036;-69
2022/05/01 06:47:48;;;;;;;20.90;12.55;;;8.90;99.90;;;;;;5112188;28;20038;-69
2022/05/01 06:50:14;;;;;;;22.38;13.65;;;8.90;99.90;;;;;;5111644;28;20048;-69
2022/05/01 06:52:41;;;;;;;26.70;14.10;;;8.90;99.90;;;;;;5110734;28;20031;-69
2022/05/01 06:55:07;;;;;;;22.40;14.32;;;9.00;99.90;;;;;;5093145;28;20074;-70
2022/05/01 06:57:32;;;;;;;25.67;14.13;;;9.00;99.90;;;;;;5110670;28;20036;-68
2022/05/01 06:59:58;;;;;;;23.10;14.32;;;9.00;99.90;;;;;;5110621;28;20039;-69
2022/05/01 07:02:23;;;;;;;21.33;13.57;;;9.10;99.90;;;;;;5110358;28;20081;-68
2022/05/01 07:04:49;;;;;;;19.73;12.93;;;9.10;99.90;;;;;;5111328;28;20039;-69
2022/05/01 07:07:15;;;;;;;21.05;12.70;;;9.20;99.90;;;;;;5092498;28;20482;-70
2022/05/01 07:09:40;;;;;;;23.40;13.27;;;9.10;99.90;;;;;;5093445;28;20084;-68
2022/05/01 07:12:10;;;;;;;22.52;12.90;;;9.10;99.90;;;;;;5093487;28;20043;-69
2022/05/01 07:14:39;;;;;;;22.83;13.27;;;9.20;99.90;;;;;;5111834;28;20043;-69
2022/05/01 07:17:05;;;;;;;21.27;12.45;;;9.30;99.90;;;;;;5111721;28;20049;-69
2022/05/01 07:19:30;;;;;;;22.00;12.60;;;9.30;99.90;;;;;;5111232;28;20118;-68
2022/05/01 07:21:56;;;;;;;19.40;12.63;;;9.30;99.90;;;;;;5093318;28;20534;-68
2022/05/01 07:24:21;;;;;;;21.23;12.52;;;9.40;99.90;;;;;;5111605;28;20044;-68
2022/05/01 07:26:47;;;;;;;20.13;12.55;;;9.40;99.90;;;;;;5092598;28;20044;-69
2022/05/01 07:29:12;;;;;;;17.45;11.80;;;9.50;99.90;;;;;;5092946;28;20127;-69
2022/05/01 07:31:39;;;;;;;19.80;12.60;;;9.40;99.90;;;;;;5110792;28;20043;-69
2022/05/01 07:34:05;;;;;;;20.35;13.15;;;9.50;99.90;;;;;;5111301;28;20051;-68
2022/05/01 07:36:31;;;;;;;18.75;12.45;;;9.50;99.90;;;;;;5092898;28;20043;-69
2022/05/01 07:38:57;;;;;;;20.30;13.40;;;9.60;99.90;;;;;;5092755;28;20480;-69
2022/05/01 07:41:23;;;;;;;18.02;13.10;;;9.60;99.90;;;;;;5111510;28;20039;-69
2022/05/01 07:43:48;;;;;;;19.88;13.30;;;9.60;99.90;;;;;;5092894;28;20047;-69
2022/05/01 07:46:14;;;;;;;23.75;13.55;;;9.60;99.90;;;;;;5111164;28;20556;-68
2022/05/01 07:48:40;;;;;;;19.75;11.85;;;9.60;99.90;;;;;;5091977;28;20126;-69
2022/05/01 07:51:06;;;;;;;17.05;11.57;;;9.70;99.90;;;;;;5111668;28;20071;-69
2022/05/01 07:53:34;;;;;;;23.17;13.05;;;9.80;99.90;;;;;;5114505;28;20040;-69
2022/05/01 07:56:00;;;;;;;21.88;12.15;;;9.80;99.90;;;;;;5114545;28;20039;-69
2022/05/01 07:58:27;;;;;;;19.33;13.10;;;9.80;99.90;;;;;;5113501;28;20399;-67
2022/05/01 08:00:53;;;;;;;19.92;11.63;;;9.90;99.90;;;;;;5092952;28;20442;-65
2022/05/01 08:06:03;;;;;;;17.70;12.32;;;9.90;99.90;;;;;;5110597;28;20058;-66
2022/05/01 08:08:33;;;;;;;16.83;11.50;;;10.00;99.90;;;;;;5110218;28;20071;-66
2022/05/01 08:10:59;;;;;;;20.08;12.88;;;10.00;99.90;;;;;;5110881;28;20496;-66
2022/05/01 08:13:25;;;;;;;17.85;9.80;;;10.10;99.90;;;;;;5111047;28;20041;-66
2022/05/01 08:15:50;;;;;;;17.05;10.38;;;10.10;99.90;;;;;;5110340;28;20044;-66
2022/05/01 08:21:09;;;;;;;16.23;11.10;;;10.20;99.90;;;;;;5101399;28;20649;-65
2022/05/01 08:23:36;;;;;;;18.60;11.68;;;10.20;99.90;;;;;;5101930;28;20035;-66
2022/05/01 08:26:04;;;;;;;15.88;10.63;;;10.20;99.90;;;;;;5099630;28;20062;-66
2022/05/01 08:28:30;;;;;;;17.80;11.82;;;10.20;99.90;;;;;;5100315;28;20036;-66
2022/05/01 08:30:56;;;;;;;17.45;10.32;;;10.30;99.90;;;;;;5101300;28;20074;-66
2022/05/01 08:33:22;;;;;;;16.20;10.57;;;10.40;99.90;;;;;;5099252;28;20466;-65
2022/05/01 08:35:47;;;;;;;15.70;10.52;;;10.40;99.90;;;;;;5101073;28;20099;-67
2022/05/01 08:38:13;;;;;;;14.77;9.85;;;10.40;99.90;;;;;;5100549;28;20040;-68
2022/05/01 08:40:38;;;;;;;16.15;9.65;;;10.50;99.90;;;;;;5098856;28;20032;-65
2022/05/01 08:43:05;;;;;;;19.15;10.15;;;10.40;99.90;;;;;;5102417;28;20123;-66
2022/05/01 08:45:47;;;;;;;15.02;10.25;;;10.50;99.90;;;;;;5099884;28;20541;-66
2022/05/01 08:48:18;;;;;;;18.70;10.43;;;10.60;99.90;;;;;;5100601;28;20028;-67
2022/05/01 08:50:45;;;;;;;16.63;10.52;;;10.70;99.90;;;;;;5100859;28;20510;-66
2022/05/01 08:53:12;;;;;;;16.15;10.82;;;10.70;99.90;;;;;;5110598;28;20488;-66
2022/05/01 08:55:38;;;;;;;16.95;9.63;;;10.80;99.90;;;;;;5112918;28;20035;-66
2022/05/01 08:58:05;;;;;;;14.88;9.85;;;10.80;99.90;;;;;;5113697;28;20074;-66
2022/05/01 09:00:31;;;;;;;16.15;7.90;;;10.90;99.90;;;;;;5112167;28;20057;-68
2022/05/01 09:02:56;;;;;;;13.32;8.88;;;11.00;99.90;;;;;;5113107;28;20040;-66
2022/05/01 09:05:22;;;;;;;15.05;10.23;;;11.00;99.90;;;;;;5113072;28;20043;-67
2022/05/01 09:07:48;;;;;;;15.20;9.95;;;11.00;99.90;;;;;;5111958;28;20095;-67
2022/05/01 09:10:14;;;;;;;15.80;10.32;;;11.00;99.90;;;;;;5112668;28;20047;-66
2022/05/01 09:12:49;;;;;;;15.25;9.70;;;11.00;99.90;;;;;;5113689;28;20035;-66
2022/05/01 09:15:34;;;;;;;15.98;9.70;;;11.10;99.90;;;;;;5095766;28;20047;-65
2022/05/01 09:18:05;;;;;;;13.25;9.27;;;11.20;99.90;;;;;;5095828;28;20036;-66
2022/05/01 09:20:32;;;;;;;15.10;9.38;;;11.30;99.90;;;;;;5113687;28;20044;-66
2022/05/01 09:22:59;;;;;;;13.70;8.63;;;11.30;99.90;;;;;;5114062;28;20036;-66
2022/05/01 09:25:27;;;;;;;13.30;9.50;;;11.30;99.90;;;;;;5113517;28;20039;-67
2022/05/01 09:27:56;;;;;;;13.35;9.30;;;11.30;99.90;;;;;;5094581;28;20111;-67
2022/05/01 09:30:31;;;;;;;14.32;9.02;;;11.20;99.90;;;;;;5112173;28;20058;-66
2022/05/01 09:32:57;;;;;;;13.75;9.13;;;11.30;99.90;;;;;;5113579;28;20035;-67
2022/05/01 09:35:34;;;;;;;15.55;9.00;;;11.30;99.90;;;;;;5113838;28;20039;-67
2022/05/01 09:38:25;;;;;;;15.35;10.23;;;11.40;99.90;;;;;;5113704;28;20032;-66
2022/05/01 09:40:55;;;;;;;15.40;8.75;;;11.40;99.90;;;;;;5106295;28;20126;-66
2022/05/01 09:43:44;;;;;;;13.10;8.93;;;11.50;99.90;;;;;;5113328;28;20091;-67
2022/05/01 09:46:24;;;;;;;19.70;9.52;;;11.50;99.90;;;;;;5112947;28;20088;-67
2022/05/01 09:49:03;;;;;;;15.50;9.32;;;11.60;99.90;;;;;;5112950;28;20043;-66
2022/05/01 09:51:34;;;;;;;11.20;8.57;;;11.60;99.90;;;;;;5113366;28;20101;-66
2022/05/01 09:54:01;;;;;;;11.55;8.25;;;11.50;99.90;;;;;;5113432;28;20086;-67
2022/05/01 09:56:27;;;;;;;12.57;8.20;;;11.60;99.90;;;;;;5113348;28;20039;-67
2022/05/01 09:59:00;;;;;;;11.20;8.10;;;11.60;99.90;;;;;;5106502;28;20093;-66
2022/05/01 10:01:27;;;;;;;13.32;8.77;;;11.70;99.90;;;;;;5101839;28;20034;-67
2022/05/01 10:03:54;;;;;;;13.65;7.63;;;11.70;99.90;;;;;;5100705;28;20491;-66
2022/05/01 10:06:20;;;;;;;11.48;7.43;;;11.80;99.90;;;;;;5099362;28;20043;-66
2022/05/01 10:08:47;;;;;;;10.73;6.95;;;11.90;99.90;;;;;;5105322;28;20050;-66
2022/05/01 10:11:16;;;;;;;13.60;7.80;;;12.00;99.90;;;;;;5113000;28;20809;-65
2022/05/01 10:13:43;;;;;;;12.70;7.63;;;12.00;99.90;;;;;;5105648;28;20048;-66
2022/05/01 10:16:11;;;;;;;10.93;7.80;;;12.10;99.90;;;;;;5106249;28;20441;-68
2022/05/01 10:18:38;;;;;;;12.05;7.70;;;12.00;99.90;;;;;;5085612;28;20051;-65
2022/05/01 10:21:05;;;;;;;12.07;7.13;;;12.10;99.90;;;;;;5101677;28;20036;-66
2022/05/01 10:23:32;;;;;;;11.18;7.32;;;12.20;99.90;;;;;;5084850;28;20031;-68
2022/05/01 10:26:24;;;;;;;12.02;8.13;;;12.20;99.90;;;;;;5102881;28;20047;-68
2022/05/01 10:29:20;;;;;;;10.10;7.10;;;12.30;99.90;;;;;;5103323;28;20633;-66
2022/05/01 10:32:30;;;;;;;9.15;5.95;;;12.30;99.90;;;;;;5111068;28;20054;-66
2022/05/01 10:35:22;;;;;;;12.57;6.80;;;12.50;99.90;;;;;;5112027;28;20039;-66
2022/05/01 10:38:07;;;;;;;13.35;6.93;;;12.60;99.90;;;;;;5079521;28;20577;-67
2022/05/01 10:40:39;;;;;;;13.25;6.63;;;12.70;99.90;;;;;;5111901;28;20040;-67
2022/05/01 10:43:27;;;;;;;8.95;5.65;;;12.80;99.90;;;;;;5111334;28;20086;-66
2022/05/01 10:45:55;;;;;;;9.73;5.50;;;12.90;99.90;;;;;;5111515;28;20120;-67
2022/05/01 10:48:39;;;;;;;8.32;4.78;;;13.10;99.90;;;;;;5111439;28;20597;-66
2022/05/01 10:51:38;;;;;;;10.23;5.45;;;13.20;99.90;;;;;;5112197;28;20043;-67
2022/05/01 10:54:10;;;;;;;9.70;5.78;;;13.10;99.90;;;;;;5111783;28;20270;-66
2022/05/01 10:56:39;;;;;;;7.00;5.15;;;13.20;99.90;;;;;;5111629;28;20035;-66
2022/05/01 10:59:30;;;;;;;8.48;4.80;;;13.20;99.90;;;;;;5111299;28;20040;-67
2022/05/01 11:01:57;;;;;;;7.78;4.93;;;13.20;99.90;;;;;;5111933;28;20039;-66
2022/05/01 11:04:23;;;;;;;11.68;4.68;;;13.30;99.90;;;;;;5111536;28;20105;-66
2022/05/01 11:06:56;;;;;;;8.77;5.07;;;13.20;99.90;;;;;;5111542;28;20127;-67
2022/05/01 11:09:22;;;;;;;8.10;5.60;;;13.30;99.90;;;;;;5111252;28;20092;-66
2022/05/01 11:11:53;;;;;;;6.95;5.50;;;13.40;99.90;;;;;;5111140;28;20036;-66
2022/05/01 11:14:38;;;;;;;15.20;5.30;;;13.40;99.90;;;;;;5111698;28;20051;-66
2022/05/01 11:17:04;;;;;;;10.15;4.85;;;13.60;99.90;;;;;;5111057;28;20127;-66
2022/05/01 11:19:42;;;;;;;8.35;4.85;;;13.80;99.90;;;;;;5091761;28;20467;-66
2022/05/01 11:22:08;;;;;;;6.25;4.57;;;13.90;99.90;;;;;;5110767;28;20039;-66
2022/05/01 11:24:42;;;;;;;5.75;3.90;;;13.80;99.90;;;;;;5110752;28;20115;-66
2022/05/01 11:27:11;;;;;;;6.22;4.50;;;14.10;97.50;;;;;;5111423;28;20044;-66
2022/05/01 11:29:37;;;;;;;5.40;4.05;;;14.00;95.80;;;;;;5110676;28;20092;-66
2022/05/01 11:32:19;;;;;;;6.03;4.15;;;14.00;99.90;;;;;;5111191;28;20115;-66
2022/05/01 11:34:49;;;;;;;8.07;3.78;;;14.20;95.90;;;;;;5111804;28;20054;-66
2022/05/01 11:37:15;;;;;;;7.05;3.72;;;14.20;97.90;;;;;;5111474;28;20035;-67
2022/05/01 11:39:49;;;;;;;6.05;3.53;;;14.10;97.60;;;;;;5110119;28;20046;-66
2022/05/01 11:42:24;;;;;;;5.18;3.38;;;14.10;92.60;;;;;;5111120;28;20473;-67
2022/05/01 11:44:57;;;;;;;7.30;3.22;;;14.20;92.10;;;;;;5110643;28;20442;-65
2022/05/01 11:47:25;;;;;;;4.50;3.25;;;14.30;87.90;;;;;;5093271;28;20376;-66
2022/05/01 11:49:51;;;;;;;5.25;3.50;;;14.40;91.10;;;;;;5111178;28;20123;-66
2022/05/01 11:52:17;;;;;;;3.67;2.95;;;14.70;94.30;;;;;;5111128;28;20071;-67
2022/05/01 11:54:57;;;;;;;4.65;3.35;;;14.60;92.60;;;;;;5111041;28;20043;-67
2022/05/01 12:02:59;;;;;;;6.05;3.60;;;14.50;74.10;;;;;;5111302;28;20047;-68
2022/05/01 12:05:25;;;;;;;5.90;3.00;;;14.60;88.10;;;;;;5111257;28;20437;-67
2022/05/01 12:07:55;;;;;;;4.32;3.47;;;14.50;82.60;;;;;;5111104;28;20115;-67
2022/05/01 12:10:21;;;;;;;8.18;3.20;;;14.60;67.30;;;;;;5092866;28;20047;-67
2022/05/01 12:12:47;;;;;;;4.05;2.90;;;14.60;78.40;;;;;;5110912;28;20407;-67
2022/05/01 12:15:12;;;;;;;3.78;2.65;;;14.60;71.60;;;;;;5111006;28;20061;-67
2022/05/01 12:17:42;;;;;;;9.00;2.92;;;14.70;76.50;;;;;;5111226;28;20048;-67
2022/05/01 12:20:09;;;;;;;5.97;2.65;;;14.60;70.50;;;;;;5110751;28;20051;-67
2022/05/01 12:22:38;;;;;;;7.22;2.90;;;14.60;70.50;;;;;;5110846;28;20032;-67
2022/05/01 12:25:09;;;;;;;4.45;2.92;;;14.60;72.00;;;;;;5109966;28;20097;-67
2022/05/01 12:27:36;;;;;;;3.10;2.53;;;14.60;70.10;;;;;;5109045;28;20057;-66
2022/05/01 12:30:05;;;;;;;4.63;3.05;;;14.50;60.50;;;;;;5111265;28;20590;-67
2022/05/01 12:32:32;;;;;;;5.38;2.97;;;14.40;66.70;;;;;;5095254;28;20042;-67
2022/05/01 12:35:03;;;;;;;5.07;2.83;;;14.60;87.00;;;;;;5113168;28;20458;-67
2022/05/01 12:37:32;;;;;;;4.55;3.22;;;14.60;74.60;;;;;;5114883;28;20075;-67
2022/05/01 12:40:12;;;;;;;5.30;3.17;;;14.60;79.30;;;;;;5095611;28;20773;-67
2022/05/01 12:45:40;;;;;;;4.43;2.83;;;14.70;71.40;;;;;;5075999;28;20044;-67
2022/05/01 12:48:08;;;;;;;4.60;3.22;;;14.90;61.00;;;;;;5114597;28;20495;-67
2022/05/01 12:50:37;;;;;;;3.67;2.75;;;14.50;66.30;;;;;;5114623;28;20443;-67
2022/05/01 12:53:30;;;;;;;4.53;3.30;;;14.60;76.20;;;;;;5114772;28;20043;-66
2022/05/01 12:55:58;;;;;;;4.38;2.97;;;14.70;72.30;;;;;;5114641;28;20035;-67
2022/05/01 12:58:31;;;;;;;5.20;3.55;;;14.70;76.70;;;;;;5114193;28;20059;-67
2022/05/01 13:00:58;;;;;;;5.43;3.50;;;14.80;67.10;;;;;;5114655;28;20032;-66
2022/05/01 13:03:25;;;;;;;7.57;3.25;;;14.60;77.40;;;;;;5096148;28;20044;-67
2022/05/01 13:06:07;;;;;;;4.03;2.92;;;14.70;75.60;;;;;;5114450;28;20389;-67
2022/05/01 13:08:48;;;;;;;6.68;3.30;;;14.80;73.30;;;;;;5114030;28;20043;-66